createdAt,value
2018-06-11T04:53:45.749Z,2788.00
2018-06-11T04:55:27.700Z,2884.00
2018-06-11T04:55:50.172Z,2956.00
2018-06-11T04:56:46.058Z,3020.00
2018-06-11T04:57:48.796Z,3120.00
2018-06-11T04:58:46.197Z,3272.00
2018-06-11T04:59:47.351Z,3372.00
2018-06-11T05:00:47.155Z,3316.00
2018-06-11T05:03:35.996Z,3200.00
2018-06-11T05:04:33.840Z,3080.00
2018-06-11T05:05:33.905Z,2964.00
2018-06-11T05:06:33.759Z,2844.00
2018-06-11T05:07:34.791Z,2812.00
2018-06-11T05:08:35.535Z,2856.00
2018-06-11T05:09:34.489Z,2956.00
2018-06-11T05:10:35.312Z,3200.00
2018-06-11T05:11:36.019Z,3504.00
2018-06-11T05:12:40.840Z,3652.00
2018-06-11T05:14:32.762Z,3820.00
2018-06-11T05:15:32.666Z,3884.00
2018-06-11T05:16:32.927Z,3964.00
2018-06-11T05:19:50.229Z,4228.00
2018-06-11T05:20:50.830Z,4364.00
2018-06-11T05:21:51.913Z,4320.00
2018-06-11T05:22:48.176Z,4156.00
2018-06-11T05:23:48.469Z,4116.00
2018-06-11T05:24:48.605Z,4132.00
2018-06-11T05:25:56.130Z,4236.00
2018-06-11T05:33:06.474Z,4116.00
2018-06-11T05:34:01.597Z,4096.00
2018-06-11T05:37:03.216Z,4344.00
2018-06-11T05:38:00.435Z,4360.00
2018-06-11T05:39:01.053Z,4312.00
2018-06-11T05:40:04.476Z,4172.00
2018-06-11T05:41:13.319Z,4132.00
2018-06-11T05:43:04.664Z,4308.00
2018-06-11T05:51:35.860Z,3872.00
2018-06-11T05:52:41.547Z,3888.00
2018-06-11T06:04:24.489Z,6040.00
2018-06-11T06:15:27.166Z,6272.00
2018-06-11T06:18:13.607Z,6108.00
2018-06-11T06:21:23.133Z,6420.00
2018-06-11T06:22:14.893Z,6500.00
2018-06-11T06:23:19.231Z,6424.00
2018-06-11T06:24:14.594Z,6216.00
2018-06-11T06:25:12.831Z,6308.00
2018-06-11T06:26:13.085Z,6576.00
2018-06-11T06:27:13.237Z,6676.00
2018-06-11T06:28:13.268Z,6464.00
2018-06-11T06:29:13.563Z,5952.00
2018-06-11T06:30:13.454Z,5404.00
2018-06-11T06:58:18.720Z,7156.00
2018-06-11T06:59:19.478Z,7312.00
2018-06-11T07:00:17.945Z,7428.00
2018-06-11T07:01:16.979Z,7364.00
2018-06-11T07:02:17.012Z,7128.00
2018-06-11T07:03:17.098Z,6968.00
2018-06-11T07:04:19.367Z,6784.00
2018-06-11T07:05:17.626Z,6808.00
2018-06-11T07:06:18.195Z,6972.00
2018-06-11T07:07:18.035Z,7148.00
2018-06-11T07:08:18.171Z,7260.00
2018-06-11T07:09:18.228Z,7236.00
2018-06-11T07:10:18.420Z,7432.00
2018-06-11T07:11:18.692Z,7772.00
2018-06-11T07:12:19.417Z,7896.00
2018-06-11T07:13:20.007Z,8172.00
2018-06-11T07:14:19.539Z,8764.00
2018-06-11T07:15:19.512Z,9144.00
2018-06-11T07:16:20.153Z,9840.00
2018-06-11T07:17:19.920Z,11192.00
2018-06-11T07:18:20.655Z,12524.00
2018-06-11T07:19:22.508Z,13332.00
2018-06-11T07:20:20.610Z,13516.00
2018-06-11T07:21:21.327Z,13232.00
2018-06-11T07:22:20.909Z,12744.00
2018-06-11T07:23:22.016Z,12404.00
2018-06-11T07:24:21.276Z,12176.00
2018-06-11T07:25:21.423Z,11944.00
2018-06-11T07:26:22.088Z,11960.00
2018-06-11T07:27:22.361Z,12336.00
2018-06-11T07:28:21.809Z,12012.00
2018-06-11T07:30:59.723Z,12164.00
2018-06-11T07:31:57.876Z,12720.00
2018-06-11T07:32:58.323Z,13276.00
2018-06-11T07:33:59.678Z,14208.00
2018-06-11T07:34:59.155Z,13888.00
2018-06-11T07:35:58.525Z,14240.00
2018-06-11T07:36:59.984Z,14656.00
2018-06-11T07:38:00.249Z,14592.00
2018-06-11T07:38:59.747Z,13892.00
2018-06-11T07:40:00.880Z,13192.00
2018-06-11T07:40:58.211Z,12648.00
2018-06-11T07:41:57.298Z,12288.00
2018-06-11T07:42:57.336Z,11952.00
2018-06-11T07:43:57.678Z,11892.00
2018-06-11T07:44:57.938Z,12148.00
2018-06-11T07:45:58.961Z,12620.00
2018-06-11T07:46:58.152Z,12972.00
2018-06-11T07:47:58.333Z,13536.00
2018-06-11T07:48:58.934Z,14064.00
2018-06-11T07:49:58.850Z,14592.00
2018-06-11T07:50:58.849Z,14360.00
2018-06-11T07:51:59.802Z,13648.00
2018-06-11T07:52:59.347Z,13120.00
2018-06-11T07:53:59.923Z,12556.00
2018-06-11T07:55:02.277Z,12328.00
2018-06-11T07:55:59.756Z,12372.00
2018-06-11T07:57:00.045Z,12364.00
2018-06-11T07:58:00.362Z,12212.00
2018-06-11T07:59:00.432Z,11996.00
2018-06-11T08:00:01.268Z,12232.00
2018-06-11T08:01:00.598Z,12520.00
2018-06-11T08:02:00.767Z,12340.00
2018-06-11T08:03:00.964Z,11944.00
2018-06-11T08:04:01.114Z,11828.00
2018-06-11T08:05:02.185Z,12800.00
2018-06-11T08:06:03.518Z,14784.00
2018-06-11T08:07:01.914Z,14204.00
2018-06-11T08:08:01.975Z,13648.00
2018-06-11T08:09:02.174Z,12964.00
2018-06-11T08:10:07.861Z,12372.00
2018-06-11T08:11:07.409Z,12784.00
2018-06-11T08:12:02.637Z,14668.00
2018-06-11T11:07:58.537Z,50464.00
2018-06-11T11:10:43.181Z,49248.00
2018-06-11T11:10:55.364Z,50272.00
2018-06-11T12:07:25.718Z,32928.00
2018-06-11T12:08:00.670Z,27808.00
2018-06-11T12:10:44.761Z,22432.00
2018-06-11T12:11:15.251Z,21696.00
2018-06-11T12:19:55.038Z,20864.00
2018-06-11T12:41:22.843Z,51040.00
2018-06-11T12:45:51.527Z,41888.00
2018-06-11T13:02:31.724Z,50560.00
2018-06-11T13:08:09.723Z,21472.00
2018-06-11T13:12:58.581Z,20352.00
